sensor_id;sensor_type;location;lat;lon;timestamp;pressure;altitude;pressure_sealevel;temperature;humidity
46782;BME280;32541;46.298;11.506;2023-04-09T00:02:11;89588.78;;;2.97;88.00
46782;BME280;32541;46.298;11.506;2023-04-09T00:04:37;89584.41;;;2.94;87.81
46782;BME280;32541;46.298;11.506;2023-04-09T00:07:02;89595.97;;;2.87;88.61
46782;BME280;32541;46.298;11.506;2023-04-09T00:09:28;89592.25;;;2.77;89.01
46782;BME280;32541;46.298;11.506;2023-04-09T00:11:53;89588.47;;;2.80;88.47
46782;BME280;32541;46.298;11.506;2023-04-09T00:14:21;89588.63;;;2.74;88.93
46782;BME280;32541;46.298;11.506;2023-04-09T00:16:46;89579.94;;;2.76;89.26
46782;BME280;32541;46.298;11.506;2023-04-09T00:19:11;89582.31;;;2.59;89.56
46782;BME280;32541;46.298;11.506;2023-04-09T00:21:37;89579.72;;;2.53;90.11
46782;BME280;32541;46.298;11.506;2023-04-09T00:24:02;89578.81;;;2.51;90.30
46782;BME280;32541;46.298;11.506;2023-04-09T00:26:28;89579.53;;;2.51;90.47
46782;BME280;32541;46.298;11.506;2023-04-09T00:28:53;89575.63;;;2.60;90.22
46782;BME280;32541;46.298;11.506;2023-04-09T00:31:19;89577.47;;;2.65;89.88
46782;BME280;32541;46.298;11.506;2023-04-09T00:33:44;89576.38;;;2.60;89.44
46782;BME280;32541;46.298;11.506;2023-04-09T00:36:10;89582.13;;;2.57;89.77
46782;BME280;32541;46.298;11.506;2023-04-09T00:38:35;89587.22;;;2.60;89.99
46782;BME280;32541;46.298;11.506;2023-04-09T00:41:00;89577.28;;;2.63;89.84
46782;BME280;32541;46.298;11.506;2023-04-09T00:43:26;89575.63;;;2.60;89.71
46782;BME280;32541;46.298;11.506;2023-04-09T00:45:51;89581.00;;;2.73;89.02
46782;BME280;32541;46.298;11.506;2023-04-09T00:48:17;89578.06;;;2.71;89.94
46782;BME280;32541;46.298;11.506;2023-04-09T00:50:42;89583.00;;;2.72;89.74
46782;BME280;32541;46.298;11.506;2023-04-09T00:53:09;89582.78;;;2.70;89.61
46782;BME280;32541;46.298;11.506;2023-04-09T00:55:38;89583.13;;;2.67;89.23
46782;BME280;32541;46.298;11.506;2023-04-09T00:58:04;89588.56;;;2.67;89.56
46782;BME280;32541;46.298;11.506;2023-04-09T01:00:29;89588.28;;;2.78;89.32
46782;BME280;32541;46.298;11.506;2023-04-09T01:02:56;89585.84;;;2.67;89.26
46782;BME280;32541;46.298;11.506;2023-04-09T01:05:25;89593.03;;;2.64;89.13
46782;BME280;32541;46.298;11.506;2023-04-09T01:08:07;89584.38;;;2.66;89.05
46782;BME280;32541;46.298;11.506;2023-04-09T01:10:41;89588.16;;;2.63;89.11
46782;BME280;32541;46.298;11.506;2023-04-09T01:16:07;89586.09;;;2.56;89.85
46782;BME280;32541;46.298;11.506;2023-04-09T01:21:13;89577.25;;;2.76;89.45
46782;BME280;32541;46.298;11.506;2023-04-09T01:29:11;89581.53;;;2.51;90.14
46782;BME280;32541;46.298;11.506;2023-04-09T01:31:38;89569.34;;;2.65;88.86
46782;BME280;32541;46.298;11.506;2023-04-09T01:34:05;89572.88;;;2.52;89.41
46782;BME280;32541;46.298;11.506;2023-04-09T01:36:32;89579.13;;;2.47;89.89
46782;BME280;32541;46.298;11.506;2023-04-09T01:39:00;89581.09;;;2.47;89.88
46782;BME280;32541;46.298;11.506;2023-04-09T01:41:26;89576.34;;;2.40;89.96
46782;BME280;32541;46.298;11.506;2023-04-09T01:43:55;89576.34;;;2.40;90.33
46782;BME280;32541;46.298;11.506;2023-04-09T01:46:22;89571.25;;;2.36;89.86
46782;BME280;32541;46.298;11.506;2023-04-09T01:48:49;89572.31;;;2.33;89.91
46782;BME280;32541;46.298;11.506;2023-04-09T01:51:15;89583.22;;;2.41;89.18
46782;BME280;32541;46.298;11.506;2023-04-09T01:53:41;89579.72;;;2.33;89.58
46782;BME280;32541;46.298;11.506;2023-04-09T01:56:08;89569.84;;;2.22;90.30
46782;BME280;32541;46.298;11.506;2023-04-09T01:58:34;89581.50;;;2.30;89.61
46782;BME280;32541;46.298;11.506;2023-04-09T02:01:11;89581.50;;;2.30;89.32
46782;BME280;32541;46.298;11.506;2023-04-09T02:03:51;89588.16;;;2.29;89.07
46782;BME280;32541;46.298;11.506;2023-04-09T02:08:46;89597.19;;;2.11;89.94
46782;BME280;32541;46.298;11.506;2023-04-09T02:11:14;89588.66;;;2.07;90.09
46782;BME280;32541;46.298;11.506;2023-04-09T02:13:40;89587.75;;;2.04;90.24
46782;BME280;32541;46.298;11.506;2023-04-09T02:16:08;89592.00;;;2.00;90.54
46782;BME280;32541;46.298;11.506;2023-04-09T02:18:35;89588.78;;;2.01;89.72
46782;BME280;32541;46.298;11.506;2023-04-09T02:21:00;89585.66;;;1.97;89.05
46782;BME280;32541;46.298;11.506;2023-04-09T02:23:26;89592.75;;;1.87;88.86
46782;BME280;32541;46.298;11.506;2023-04-09T02:25:52;89583.19;;;1.86;89.18
46782;BME280;32541;46.298;11.506;2023-04-09T02:28:18;89589.00;;;1.90;88.42
46782;BME280;32541;46.298;11.506;2023-04-09T02:30:43;89588.81;;;1.88;87.60
46782;BME280;32541;46.298;11.506;2023-04-09T02:33:09;89588.84;;;1.75;88.04
46782;BME280;32541;46.298;11.506;2023-04-09T02:35:34;89588.44;;;1.58;88.72
46782;BME280;32541;46.298;11.506;2023-04-09T02:38:00;89594.47;;;1.64;87.50
46782;BME280;32541;46.298;11.506;2023-04-09T02:40:25;89595.50;;;1.61;86.90
46782;BME280;32541;46.298;11.506;2023-04-09T02:42:51;89595.63;;;1.68;86.34
46782;BME280;32541;46.298;11.506;2023-04-09T02:45:17;89594.28;;;1.62;86.44
46782;BME280;32541;46.298;11.506;2023-04-09T02:47:42;89598.22;;;1.61;86.06
46782;BME280;32541;46.298;11.506;2023-04-09T02:50:07;89590.63;;;1.46;85.78
46782;BME280;32541;46.298;11.506;2023-04-09T02:52:33;89596.78;;;1.47;85.96
46782;BME280;32541;46.298;11.506;2023-04-09T02:54:58;89595.72;;;1.50;84.87
46782;BME280;32541;46.298;11.506;2023-04-09T02:57:24;89601.25;;;1.44;85.14
46782;BME280;32541;46.298;11.506;2023-04-09T02:59:49;89600.72;;;1.46;84.92
46782;BME280;32541;46.298;11.506;2023-04-09T03:02:14;89594.19;;;1.41;84.46
46782;BME280;32541;46.298;11.506;2023-04-09T03:04:40;89595.94;;;1.39;84.63
46782;BME280;32541;46.298;11.506;2023-04-09T03:07:05;89600.63;;;1.38;84.36
46782;BME280;32541;46.298;11.506;2023-04-09T03:09:31;89600.75;;;1.33;84.07
46782;BME280;32541;46.298;11.506;2023-04-09T03:11:56;89605.75;;;1.16;84.80
46782;BME280;32541;46.298;11.506;2023-04-09T03:14:25;89608.34;;;1.21;84.02
46782;BME280;32541;46.298;11.506;2023-04-09T03:16:50;89600.00;;;1.19;83.85
46782;BME280;32541;46.298;11.506;2023-04-09T03:19:15;89604.06;;;1.13;83.69
46782;BME280;32541;46.298;11.506;2023-04-09T03:21:41;89595.72;;;0.97;83.86
46782;BME280;32541;46.298;11.506;2023-04-09T03:24:07;89603.63;;;0.95;83.96
46782;BME280;32541;46.298;11.506;2023-04-09T03:26:32;89606.66;;;0.92;84.07
46782;BME280;32541;46.298;11.506;2023-04-09T03:29:04;89608.22;;;1.00;83.32
46782;BME280;32541;46.298;11.506;2023-04-09T03:31:30;89608.81;;;0.93;82.46
46782;BME280;32541;46.298;11.506;2023-04-09T03:33:56;89601.75;;;0.90;83.22
46782;BME280;32541;46.298;11.506;2023-04-09T03:36:21;89609.41;;;0.73;83.44
46782;BME280;32541;46.298;11.506;2023-04-09T03:38:46;89606.81;;;0.68;83.76
46782;BME280;32541;46.298;11.506;2023-04-09T03:41:12;89603.06;;;0.71;83.85
46782;BME280;32541;46.298;11.506;2023-04-09T03:43:37;89603.16;;;0.65;84.20
46782;BME280;32541;46.298;11.506;2023-04-09T03:46:15;89599.56;;;0.57;83.91
46782;BME280;32541;46.298;11.506;2023-04-09T03:48:41;89597.16;;;0.53;84.49
46782;BME280;32541;46.298;11.506;2023-04-09T03:51:13;89596.75;;;0.49;85.15
46782;BME280;32541;46.298;11.506;2023-04-09T03:53:40;89599.06;;;0.59;84.63
46782;BME280;32541;46.298;11.506;2023-04-09T03:56:06;89595.84;;;0.60;84.04
46782;BME280;32541;46.298;11.506;2023-04-09T03:58:32;89593.03;;;0.52;84.18
46782;BME280;32541;46.298;11.506;2023-04-09T04:00:57;89600.41;;;0.52;83.97
46782;BME280;32541;46.298;11.506;2023-04-09T04:03:23;89590.69;;;0.43;83.97
46782;BME280;32541;46.298;11.506;2023-04-09T04:05:48;89596.31;;;0.45;84.38
46782;BME280;32541;46.298;11.506;2023-04-09T04:08:13;89598.53;;;0.47;84.04
46782;BME280;32541;46.298;11.506;2023-04-09T04:10:39;89604.03;;;0.41;83.67
46782;BME280;32541;46.298;11.506;2023-04-09T04:13:08;89604.09;;;0.36;84.07
46782;BME280;32541;46.298;11.506;2023-04-09T04:15:41;89605.09;;;0.33;83.14
46782;BME280;32541;46.298;11.506;2023-04-09T04:18:10;89598.34;;;0.26;82.24
46782;BME280;32541;46.298;11.506;2023-04-09T04:20:36;89607.81;;;0.33;82.22
46782;BME280;32541;46.298;11.506;2023-04-09T04:23:02;89606.84;;;0.17;81.88
46782;BME280;32541;46.298;11.506;2023-04-09T04:25:28;89612.31;;;0.12;81.59
46782;BME280;32541;46.298;11.506;2023-04-09T04:27:54;89617.41;;;0.15;81.55
46782;BME280;32541;46.298;11.506;2023-04-09T04:30:20;89619.09;;;0.18;81.53
46782;BME280;32541;46.298;11.506;2023-04-09T04:32:46;89616.47;;;0.13;82.48
46782;BME280;32541;46.298;11.506;2023-04-09T04:35:12;89616.06;;;0.09;82.12
46782;BME280;32541;46.298;11.506;2023-04-09T04:37:37;89613.75;;;0.13;81.82
46782;BME280;32541;46.298;11.506;2023-04-09T04:40:05;89613.63;;;0.05;81.67
46782;BME280;32541;46.298;11.506;2023-04-09T04:42:31;89626.03;;;0.14;81.71
46782;BME280;32541;46.298;11.506;2023-04-09T04:44:56;89632.78;;;0.07;80.58
46782;BME280;32541;46.298;11.506;2023-04-09T04:47:21;89624.00;;;0.01;80.62
46782;BME280;32541;46.298;11.506;2023-04-09T04:49:47;89633.38;;;0.00;80.67
46782;BME280;32541;46.298;11.506;2023-04-09T04:52:12;89624.53;;;-0.01;81.12
46782;BME280;32541;46.298;11.506;2023-04-09T04:54:38;89624.16;;;0.09;80.75
46782;BME280;32541;46.298;11.506;2023-04-09T04:57:04;89629.19;;;-0.01;80.50
46782;BME280;32541;46.298;11.506;2023-04-09T04:59:29;89628.84;;;0.08;80.16
46782;BME280;32541;46.298;11.506;2023-04-09T05:01:55;89628.09;;;0.08;79.03
46782;BME280;32541;46.298;11.506;2023-04-09T05:04:20;89622.97;;;0.04;79.28
46782;BME280;32541;46.298;11.506;2023-04-09T05:06:45;89633.22;;;-0.08;79.81
46782;BME280;32541;46.298;11.506;2023-04-09T05:09:11;89628.81;;;-0.11;79.83
46782;BME280;32541;46.298;11.506;2023-04-09T05:11:36;89638.47;;;-0.15;80.26
46782;BME280;32541;46.298;11.506;2023-04-09T05:14:02;89638.03;;;-0.19;81.31
46782;BME280;32541;46.298;11.506;2023-04-09T05:16:27;89628.44;;;-0.20;81.41
46782;BME280;32541;46.298;11.506;2023-04-09T05:18:53;89632.91;;;-0.23;81.64
46782;BME280;32541;46.298;11.506;2023-04-09T05:21:18;89634.38;;;-0.22;81.17
46782;BME280;32541;46.298;11.506;2023-04-09T05:23:43;89640.34;;;-0.29;82.34
46782;BME280;32541;46.298;11.506;2023-04-09T05:26:09;89640.00;;;-0.20;81.42
46782;BME280;32541;46.298;11.506;2023-04-09T05:28:34;89640.09;;;-0.07;80.92
46782;BME280;32541;46.298;11.506;2023-04-09T05:31:00;89641.59;;;-0.11;80.48
46782;BME280;32541;46.298;11.506;2023-04-09T05:33:26;89642.41;;;-0.16;80.86
46782;BME280;32541;46.298;11.506;2023-04-09T05:35:52;89638.75;;;-0.19;81.63
46782;BME280;32541;46.298;11.506;2023-04-09T05:38:17;89645.94;;;-0.21;81.39
46782;BME280;32541;46.298;11.506;2023-04-09T05:40:42;89647.44;;;-0.26;81.39
46782;BME280;32541;46.298;11.506;2023-04-09T05:43:10;89642.34;;;-0.11;80.22
46782;BME280;32541;46.298;11.506;2023-04-09T05:45:35;89640.94;;;-0.17;79.56
46782;BME280;32541;46.298;11.506;2023-04-09T05:48:00;89642.91;;;-0.18;80.70
46782;BME280;32541;46.298;11.506;2023-04-09T05:50:26;89647.38;;;-0.20;80.91
46782;BME280;32541;46.298;11.506;2023-04-09T05:52:51;89648.56;;;-0.16;80.43
46782;BME280;32541;46.298;11.506;2023-04-09T05:55:17;89650.97;;;-0.12;80.83
46782;BME280;32541;46.298;11.506;2023-04-09T05:57:42;89649.28;;;-0.15;81.28
46782;BME280;32541;46.298;11.506;2023-04-09T06:00:10;89653.69;;;-0.12;80.47
46782;BME280;32541;46.298;11.506;2023-04-09T06:02:35;89656.97;;;-0.01;79.36
46782;BME280;32541;46.298;11.506;2023-04-09T06:05:00;89655.00;;;0.00;79.55
46782;BME280;32541;46.298;11.506;2023-04-09T06:07:26;89660.25;;;-0.08;80.16
46782;BME280;32541;46.298;11.506;2023-04-09T06:09:53;89651.47;;;-0.14;80.41
46782;BME280;32541;46.298;11.506;2023-04-09T06:12:19;89660.81;;;-0.15;80.81
46782;BME280;32541;46.298;11.506;2023-04-09T06:14:47;89664.91;;;-0.08;81.71
46782;BME280;32541;46.298;11.506;2023-04-09T06:17:13;89653.59;;;-0.07;81.11
46782;BME280;32541;46.298;11.506;2023-04-09T06:19:39;89653.94;;;0.03;81.65
46782;BME280;32541;46.298;11.506;2023-04-09T06:22:04;89660.47;;;0.13;80.25
46782;BME280;32541;46.298;11.506;2023-04-09T06:24:31;89659.72;;;0.13;79.43
46782;BME280;32541;46.298;11.506;2023-04-09T06:26:57;89658.03;;;0.10;79.34
46782;BME280;32541;46.298;11.506;2023-04-09T06:29:22;89656.44;;;0.20;78.51
46782;BME280;32541;46.298;11.506;2023-04-09T06:31:48;89656.06;;;0.10;78.65
46782;BME280;32541;46.298;11.506;2023-04-09T06:34:13;89652.88;;;0.12;79.31
46782;BME280;32541;46.298;11.506;2023-04-09T06:36:39;89656.53;;;0.14;79.13
46782;BME280;32541;46.298;11.506;2023-04-09T06:39:05;89657.63;;;0.06;79.52
46782;BME280;32541;46.298;11.506;2023-04-09T06:41:30;89653.94;;;0.22;78.79
46782;BME280;32541;46.298;11.506;2023-04-09T06:43:57;89651.16;;;0.27;78.75
46782;BME280;32541;46.298;11.506;2023-04-09T06:46:22;89648.16;;;0.31;77.99
46782;BME280;32541;46.298;11.506;2023-04-09T06:48:48;89655.53;;;0.49;78.43
46782;BME280;32541;46.298;11.506;2023-04-09T06:51:13;89652.66;;;0.60;77.58
46782;BME280;32541;46.298;11.506;2023-04-09T06:53:39;89654.19;;;0.74;77.94
46782;BME280;32541;46.298;11.506;2023-04-09T06:56:04;89645.78;;;0.91;78.34
46782;BME280;32541;46.298;11.506;2023-04-09T06:58:30;89651.16;;;1.23;78.04
46782;BME280;32541;46.298;11.506;2023-04-09T07:00:55;89650.13;;;1.39;76.73
46782;BME280;32541;46.298;11.506;2023-04-09T07:03:21;89643.25;;;1.64;74.59
46782;BME280;32541;46.298;11.506;2023-04-09T07:05:46;89648.44;;;1.88;74.03
46782;BME280;32541;46.298;11.506;2023-04-09T07:08:13;89648.63;;;2.16;73.33
46782;BME280;32541;46.298;11.506;2023-04-09T07:10:38;89646.97;;;2.47;73.50
46782;BME280;32541;46.298;11.506;2023-04-09T07:13:04;89642.03;;;2.79;74.13
46782;BME280;32541;46.298;11.506;2023-04-09T07:15:29;89641.47;;;3.35;73.43
46782;BME280;32541;46.298;11.506;2023-04-09T07:17:54;89643.22;;;3.82;71.22
46782;BME280;32541;46.298;11.506;2023-04-09T07:20:21;89639.78;;;4.25;69.38
46782;BME280;32541;46.298;11.506;2023-04-09T07:22:47;89642.50;;;4.76;66.91
46782;BME280;32541;46.298;11.506;2023-04-09T07:25:13;89644.75;;;5.23;66.29
46782;BME280;32541;46.298;11.506;2023-04-09T07:27:39;89641.69;;;5.72;65.15
46782;BME280;32541;46.298;11.506;2023-04-09T07:30:05;89641.09;;;6.26;62.42
46782;BME280;32541;46.298;11.506;2023-04-09T07:32:30;89638.75;;;6.62;60.17
46782;BME280;32541;46.298;11.506;2023-04-09T07:34:57;89641.31;;;7.00;58.00
46782;BME280;32541;46.298;11.506;2023-04-09T07:37:23;89646.03;;;7.32;54.83
46782;BME280;32541;46.298;11.506;2023-04-09T07:39:49;89645.72;;;7.53;56.36
46782;BME280;32541;46.298;11.506;2023-04-09T07:42:15;89629.31;;;7.77;54.07
46782;BME280;32541;46.298;11.506;2023-04-09T07:44:41;89628.72;;;7.79;52.06
46782;BME280;32541;46.298;11.506;2023-04-09T07:47:07;89630.94;;;7.98;54.55
46782;BME280;32541;46.298;11.506;2023-04-09T07:49:34;89627.31;;;8.37;52.73
46782;BME280;32541;46.298;11.506;2023-04-09T07:52:00;89630.59;;;8.70;51.70
46782;BME280;32541;46.298;11.506;2023-04-09T07:54:25;89630.75;;;8.55;50.43
46782;BME280;32541;46.298;11.506;2023-04-09T07:56:51;89640.91;;;8.62;52.02
46782;BME280;32541;46.298;11.506;2023-04-09T07:59:16;89625.97;;;8.21;51.54
46782;BME280;32541;46.298;11.506;2023-04-09T08:01:42;89642.09;;;7.75;50.75
46782;BME280;32541;46.298;11.506;2023-04-09T08:04:09;89630.34;;;7.82;53.29
46782;BME280;32541;46.298;11.506;2023-04-09T08:06:34;89633.41;;;8.45;52.22
46782;BME280;32541;46.298;11.506;2023-04-09T08:09:01;89632.69;;;9.06;49.27
46782;BME280;32541;46.298;11.506;2023-04-09T08:11:26;89632.00;;;9.32;48.08
46782;BME280;32541;46.298;11.506;2023-04-09T08:13:52;89629.47;;;9.89;48.49
46782;BME280;32541;46.298;11.506;2023-04-09T08:16:17;89636.69;;;10.31;43.75
46782;BME280;32541;46.298;11.506;2023-04-09T08:18:43;89631.50;;;10.35;42.37
46782;BME280;32541;46.298;11.506;2023-04-09T08:21:08;89628.50;;;10.59;41.38
46782;BME280;32541;46.298;11.506;2023-04-09T08:23:33;89630.50;;;10.88;40.56
46782;BME280;32541;46.298;11.506;2023-04-09T08:25:59;89630.78;;;11.11;39.96
46782;BME280;32541;46.298;11.506;2023-04-09T08:28:24;89630.88;;;11.32;39.95
46782;BME280;32541;46.298;11.506;2023-04-09T08:30:50;89622.75;;;11.44;39.07
46782;BME280;32541;46.298;11.506;2023-04-09T08:33:15;89634.19;;;11.50;37.77
46782;BME280;32541;46.298;11.506;2023-04-09T08:35:41;89631.84;;;11.56;36.80
46782;BME280;32541;46.298;11.506;2023-04-09T08:38:06;89623.06;;;11.29;37.65
46782;BME280;32541;46.298;11.506;2023-04-09T08:40:35;89634.78;;;11.98;37.64
46782;BME280;32541;46.298;11.506;2023-04-09T08:43:03;89640.81;;;12.06;36.95
46782;BME280;32541;46.298;11.506;2023-04-09T08:45:29;89633.53;;;11.80;36.68
46782;BME280;32541;46.298;11.506;2023-04-09T08:47:55;89633.91;;;12.26;37.19
46782;BME280;32541;46.298;11.506;2023-04-09T08:50:24;89635.00;;;12.43;38.67
46782;BME280;32541;46.298;11.506;2023-04-09T08:52:50;89630.59;;;12.70;36.97
46782;BME280;32541;46.298;11.506;2023-04-09T08:55:15;89630.25;;;12.34;35.78
46782;BME280;32541;46.298;11.506;2023-04-09T08:57:41;89630.78;;;12.63;37.07
46782;BME280;32541;46.298;11.506;2023-04-09T09:00:07;89630.53;;;12.80;35.46
46782;BME280;32541;46.298;11.506;2023-04-09T09:02:33;89623.06;;;12.50;35.59
46782;BME280;32541;46.298;11.506;2023-04-09T09:04:58;89631.97;;;12.60;34.24
46782;BME280;32541;46.298;11.506;2023-04-09T09:07:26;89623.19;;;12.73;34.52
46782;BME280;32541;46.298;11.506;2023-04-09T09:09:54;89626.91;;;12.99;34.08
46782;BME280;32541;46.298;11.506;2023-04-09T09:12:34;89622.44;;;13.48;33.71
46782;BME280;32541;46.298;11.506;2023-04-09T09:15:00;89618.25;;;13.70;32.98
46782;BME280;32541;46.298;11.506;2023-04-09T09:17:26;89623.97;;;12.85;31.42
46782;BME280;32541;46.298;11.506;2023-04-09T09:19:51;89616.31;;;13.16;33.54
46782;BME280;32541;46.298;11.506;2023-04-09T09:22:17;89623.41;;;13.19;33.06
46782;BME280;32541;46.298;11.506;2023-04-09T09:24:49;89628.63;;;13.36;33.75
46782;BME280;32541;46.298;11.506;2023-04-09T09:27:35;89618.06;;;13.77;34.42
46782;BME280;32541;46.298;11.506;2023-04-09T09:30:04;89611.72;;;13.98;32.37
46782;BME280;32541;46.298;11.506;2023-04-09T09:32:30;89609.31;;;14.39;33.51
46782;BME280;32541;46.298;11.506;2023-04-09T09:34:58;89617.06;;;14.89;32.92
46782;BME280;32541;46.298;11.506;2023-04-09T09:37:27;89614.59;;;14.46;31.34
46782;BME280;32541;46.298;11.506;2023-04-09T09:39:53;89601.84;;;14.41;32.06
46782;BME280;32541;46.298;11.506;2023-04-09T09:42:19;89604.00;;;13.85;31.44
46782;BME280;32541;46.298;11.506;2023-04-09T09:44:46;89607.41;;;13.39;32.06
46782;BME280;32541;46.298;11.506;2023-04-09T09:47:13;89602.50;;;13.61;30.39
46782;BME280;32541;46.298;11.506;2023-04-09T09:49:39;89604.22;;;13.77;32.73
46782;BME280;32541;46.298;11.506;2023-04-09T09:52:08;89601.84;;;14.30;30.90
46782;BME280;32541;46.298;11.506;2023-04-09T09:54:41;89606.19;;;14.21;32.32
46782;BME280;32541;46.298;11.506;2023-04-09T09:57:10;89602.06;;;14.22;31.18
46782;BME280;32541;46.298;11.506;2023-04-09T09:59:59;89600.91;;;14.37;30.95
46782;BME280;32541;46.298;11.506;2023-04-09T10:02:30;89596.53;;;14.11;28.98
46782;BME280;32541;46.298;11.506;2023-04-09T10:05:01;89596.06;;;13.02;30.09
46782;BME280;32541;46.298;11.506;2023-04-09T10:07:29;89597.84;;;12.13;30.26
46782;BME280;32541;46.298;11.506;2023-04-09T10:09:55;89591.69;;;11.12;32.49
46782;BME280;32541;46.298;11.506;2023-04-09T10:12:22;89590.19;;;11.31;35.28
46782;BME280;32541;46.298;11.506;2023-04-09T10:14:50;89584.59;;;11.59;33.07
46782;BME280;32541;46.298;11.506;2023-04-09T10:17:16;89580.88;;;10.57;32.93
46782;BME280;32541;46.298;11.506;2023-04-09T10:19:46;89574.88;;;11.08;34.40
46782;BME280;32541;46.298;11.506;2023-04-09T10:22:17;89581.97;;;11.11;33.72
46782;BME280;32541;46.298;11.506;2023-04-09T10:24:45;89569.78;;;11.14;36.06
46782;BME280;32541;46.298;11.506;2023-04-09T10:27:15;89568.06;;;11.59;34.61
46782;BME280;32541;46.298;11.506;2023-04-09T10:29:46;89572.59;;;10.19;37.32
46782;BME280;32541;46.298;11.506;2023-04-09T10:32:19;89568.13;;;10.42;36.32
46782;BME280;32541;46.298;11.506;2023-04-09T10:34:50;89548.72;;;10.69;36.75
46782;BME280;32541;46.298;11.506;2023-04-09T10:37:21;89561.16;;;10.89;35.42
46782;BME280;32541;46.298;11.506;2023-04-09T10:39:48;89564.19;;;10.93;35.80
46782;BME280;32541;46.298;11.506;2023-04-09T10:42:19;89567.25;;;10.78;35.07
46782;BME280;32541;46.298;11.506;2023-04-09T10:47:34;89555.25;;;10.74;33.48
46782;BME280;32541;46.298;11.506;2023-04-09T10:52:42;89558.44;;;10.80;36.61
46782;BME280;32541;46.298;11.506;2023-04-09T10:55:08;89557.81;;;10.91;34.88
46782;BME280;32541;46.298;11.506;2023-04-09T10:57:34;89549.69;;;10.93;34.28
46782;BME280;32541;46.298;11.506;2023-04-09T10:59:59;89553.13;;;11.22;35.14
46782;BME280;32541;46.298;11.506;2023-04-09T11:02:40;89545.66;;;11.44;35.08
46782;BME280;32541;46.298;11.506;2023-04-09T11:07:40;89542.13;;;12.14;35.16
46782;BME280;32541;46.298;11.506;2023-04-09T11:10:07;89543.81;;;11.77;33.58
46782;BME280;32541;46.298;11.506;2023-04-09T11:12:33;89539.16;;;11.39;34.34
46782;BME280;32541;46.298;11.506;2023-04-09T11:14:58;89541.00;;;10.96;34.09
46782;BME280;32541;46.298;11.506;2023-04-09T11:17:24;89539.09;;;9.65;35.96
46782;BME280;32541;46.298;11.506;2023-04-09T11:19:49;89543.28;;;9.66;36.62
46782;BME280;32541;46.298;11.506;2023-04-09T11:22:15;89535.81;;;9.85;37.13
46782;BME280;32541;46.298;11.506;2023-04-09T11:24:45;89541.06;;;10.20;35.64
46782;BME280;32541;46.298;11.506;2023-04-09T11:27:11;89542.69;;;10.42;35.36
46782;BME280;32541;46.298;11.506;2023-04-09T11:29:37;89538.13;;;11.04;36.22
46782;BME280;32541;46.298;11.506;2023-04-09T11:32:03;89539.41;;;11.43;36.18
46782;BME280;32541;46.298;11.506;2023-04-09T11:34:30;89533.72;;;11.60;31.35
46782;BME280;32541;46.298;11.506;2023-04-09T11:36:55;89530.97;;;11.91;34.12
46782;BME280;32541;46.298;11.506;2023-04-09T11:39:23;89523.75;;;11.86;34.47
46782;BME280;32541;46.298;11.506;2023-04-09T11:41:48;89520.97;;;11.55;33.68
46782;BME280;32541;46.298;11.506;2023-04-09T11:44:13;89519.28;;;11.10;34.01
46782;BME280;32541;46.298;11.506;2023-04-09T11:46:40;89527.03;;;11.23;33.93
46782;BME280;32541;46.298;11.506;2023-04-09T11:49:06;89531.06;;;11.32;33.82
46782;BME280;32541;46.298;11.506;2023-04-09T11:51:31;89528.31;;;11.32;34.01
46782;BME280;32541;46.298;11.506;2023-04-09T11:54:03;89531.66;;;11.30;34.41
46782;BME280;32541;46.298;11.506;2023-04-09T11:56:29;89522.69;;;11.20;34.03
46782;BME280;32541;46.298;11.506;2023-04-09T11:58:55;89519.63;;;11.26;32.68
46782;BME280;32541;46.298;11.506;2023-04-09T12:01:21;89528.19;;;11.30;31.94
46782;BME280;32541;46.298;11.506;2023-04-09T12:03:53;89525.56;;;11.32;33.03
46782;BME280;32541;46.298;11.506;2023-04-09T12:06:20;89526.72;;;11.29;33.80
46782;BME280;32541;46.298;11.506;2023-04-09T12:08:53;89524.66;;;11.39;34.20
46782;BME280;32541;46.298;11.506;2023-04-09T12:11:18;89528.16;;;11.39;34.30
46782;BME280;32541;46.298;11.506;2023-04-09T12:13:45;89524.66;;;11.39;34.40
46782;BME280;32541;46.298;11.506;2023-04-09T12:16:18;89520.78;;;11.73;34.20
46782;BME280;32541;46.298;11.506;2023-04-09T12:18:46;89504.19;;;12.24;34.15
46782;BME280;32541;46.298;11.506;2023-04-09T12:21:12;89512.91;;;12.42;31.56
46782;BME280;32541;46.298;11.506;2023-04-09T12:23:37;89501.56;;;12.48;32.65
46782;BME280;32541;46.298;11.506;2023-04-09T12:26:02;89502.63;;;12.43;32.42
46782;BME280;32541;46.298;11.506;2023-04-09T12:28:28;89511.50;;;12.20;31.50
46782;BME280;32541;46.298;11.506;2023-04-09T12:30:53;89509.97;;;11.86;32.80
46782;BME280;32541;46.298;11.506;2023-04-09T12:33:19;89516.16;;;11.96;32.23
46782;BME280;32541;46.298;11.506;2023-04-09T12:35:45;89514.69;;;11.95;32.33
46782;BME280;32541;46.298;11.506;2023-04-09T12:38:11;89520.25;;;11.86;32.65
46782;BME280;32541;46.298;11.506;2023-04-09T12:40:37;89514.69;;;11.64;31.12
46782;BME280;32541;46.298;11.506;2023-04-09T12:43:03;89527.00;;;11.73;32.37
46782;BME280;32541;46.298;11.506;2023-04-09T12:45:29;89509.66;;;11.92;32.17
46782;BME280;32541;46.298;11.506;2023-04-09T12:47:55;89517.78;;;11.90;31.36
46782;BME280;32541;46.298;11.506;2023-04-09T12:50:20;89516.00;;;11.94;33.14
46782;BME280;32541;46.298;11.506;2023-04-09T12:52:45;89506.44;;;11.95;32.55
46782;BME280;32541;46.298;11.506;2023-04-09T12:55:12;89507.50;;;11.90;31.99
46782;BME280;32541;46.298;11.506;2023-04-09T12:57:40;89513.78;;;11.81;30.97
46782;BME280;32541;46.298;11.506;2023-04-09T13:00:06;89505.69;;;11.74;31.73
46782;BME280;32541;46.298;11.506;2023-04-09T13:02:32;89504.06;;;11.80;32.46
46782;BME280;32541;46.298;11.506;2023-04-09T13:04:58;89501.19;;;11.78;32.57
46782;BME280;32541;46.298;11.506;2023-04-09T13:07:24;89499.84;;;11.79;32.90
46782;BME280;32541;46.298;11.506;2023-04-09T13:09:50;89495.81;;;12.01;31.40
46782;BME280;32541;46.298;11.506;2023-04-09T13:12:16;89487.53;;;12.22;31.98
46782;BME280;32541;46.298;11.506;2023-04-09T13:14:43;89492.66;;;12.38;30.87